sensor_id;sensor_type;location;lat;lon;timestamp;temperature;humidity
29501;DHT22;16450;50.288;10.966;2023-11-19T00:02:41;4.20;99.90
29501;DHT22;16450;50.288;10.966;2023-11-19T00:05:44;4.20;99.90
29501;DHT22;16450;50.288;10.966;2023-11-19T00:08:49;4.20;99.90
29501;DHT22;16450;50.288;10.966;2023-11-19T00:11:52;4.20;99.90
29501;DHT22;16450;50.288;10.966;2023-11-19T00:14:55;4.30;99.90
29501;DHT22;16450;50.288;10.966;2023-11-19T00:17:57;4.30;99.90
29501;DHT22;16450;50.288;10.966;2023-11-19T00:21:02;4.30;99.90
29501;DHT22;16450;50.288;10.966;2023-11-19T00:24:04;4.30;99.90
29501;DHT22;16450;50.288;10.966;2023-11-19T00:27:06;4.30;99.90
29501;DHT22;16450;50.288;10.966;2023-11-19T00:30:10;4.30;99.90
29501;DHT22;16450;50.288;10.966;2023-11-19T00:33:12;4.30;99.90
29501;DHT22;16450;50.288;10.966;2023-11-19T00:36:14;4.40;99.90
29501;DHT22;16450;50.288;10.966;2023-11-19T00:39:16;4.40;99.90
29501;DHT22;16450;50.288;10.966;2023-11-19T00:42:18;4.40;99.90
29501;DHT22;16450;50.288;10.966;2023-11-19T00:45:20;4.40;99.90
29501;DHT22;16450;50.288;10.966;2023-11-19T00:48:21;4.40;99.90
29501;DHT22;16450;50.288;10.966;2023-11-19T00:51:23;4.40;99.90
29501;DHT22;16450;50.288;10.966;2023-11-19T00:54:25;4.40;99.90
29501;DHT22;16450;50.288;10.966;2023-11-19T00:57:27;4.40;99.90
29501;DHT22;16450;50.288;10.966;2023-11-19T01:00:29;4.50;99.90
29501;DHT22;16450;50.288;10.966;2023-11-19T01:03:34;4.50;99.90
29501;DHT22;16450;50.288;10.966;2023-11-19T01:06:37;4.50;99.90
29501;DHT22;16450;50.288;10.966;2023-11-19T01:09:50;4.50;99.90
29501;DHT22;16450;50.288;10.966;2023-11-19T01:12:52;4.50;99.90
29501;DHT22;16450;50.288;10.966;2023-11-19T01:15:54;4.50;99.90
29501;DHT22;16450;50.288;10.966;2023-11-19T01:18:58;4.50;99.90
29501;DHT22;16450;50.288;10.966;2023-11-19T01:22:17;4.50;99.90
29501;DHT22;16450;50.288;10.966;2023-11-19T01:25:20;4.50;99.90
29501;DHT22;16450;50.288;10.966;2023-11-19T01:28:22;4.50;99.90
29501;DHT22;16450;50.288;10.966;2023-11-19T01:31:24;4.60;99.90
29501;DHT22;16450;50.288;10.966;2023-11-19T01:34:26;4.60;99.90
29501;DHT22;16450;50.288;10.966;2023-11-19T01:37:28;4.60;99.90
29501;DHT22;16450;50.288;10.966;2023-11-19T01:40:30;4.60;99.90
29501;DHT22;16450;50.288;10.966;2023-11-19T01:43:36;4.60;99.90
29501;DHT22;16450;50.288;10.966;2023-11-19T01:46:40;4.60;99.90
29501;DHT22;16450;50.288;10.966;2023-11-19T01:49:43;4.60;99.90
29501;DHT22;16450;50.288;10.966;2023-11-19T01:52:44;4.60;99.90
29501;DHT22;16450;50.288;10.966;2023-11-19T01:55:47;4.60;99.90
29501;DHT22;16450;50.288;10.966;2023-11-19T01:58:49;4.60;99.90
29501;DHT22;16450;50.288;10.966;2023-11-19T02:01:53;4.60;99.90
29501;DHT22;16450;50.288;10.966;2023-11-19T02:04:59;4.60;99.90
29501;DHT22;16450;50.288;10.966;2023-11-19T02:08:02;4.60;99.90
29501;DHT22;16450;50.288;10.966;2023-11-19T02:11:05;4.60;99.90
29501;DHT22;16450;50.288;10.966;2023-11-19T02:14:08;4.70;99.90
29501;DHT22;16450;50.288;10.966;2023-11-19T02:17:25;4.70;99.90
29501;DHT22;16450;50.288;10.966;2023-11-19T02:20:28;4.70;99.90
29501;DHT22;16450;50.288;10.966;2023-11-19T02:23:30;4.70;99.90
29501;DHT22;16450;50.288;10.966;2023-11-19T02:26:52;4.70;99.90
29501;DHT22;16450;50.288;10.966;2023-11-19T02:29:58;4.70;99.90
29501;DHT22;16450;50.288;10.966;2023-11-19T02:33:00;4.70;99.90
29501;DHT22;16450;50.288;10.966;2023-11-19T02:36:08;4.70;99.90
29501;DHT22;16450;50.288;10.966;2023-11-19T02:39:10;4.70;99.90
29501;DHT22;16450;50.288;10.966;2023-11-19T02:42:14;4.70;99.90
29501;DHT22;16450;50.288;10.966;2023-11-19T02:45:16;4.70;99.90
29501;DHT22;16450;50.288;10.966;2023-11-19T02:48:18;4.80;99.90
29501;DHT22;16450;50.288;10.966;2023-11-19T02:51:19;4.80;99.90
29501;DHT22;16450;50.288;10.966;2023-11-19T02:54:21;4.80;99.90
29501;DHT22;16450;50.288;10.966;2023-11-19T02:57:31;4.80;99.90
29501;DHT22;16450;50.288;10.966;2023-11-19T03:00:34;4.80;99.90
29501;DHT22;16450;50.288;10.966;2023-11-19T03:03:39;4.80;99.90
29501;DHT22;16450;50.288;10.966;2023-11-19T03:06:42;4.80;99.90
29501;DHT22;16450;50.288;10.966;2023-11-19T03:09:44;4.80;99.90
29501;DHT22;16450;50.288;10.966;2023-11-19T03:12:46;4.80;99.90
29501;DHT22;16450;50.288;10.966;2023-11-19T03:15:48;4.80;99.90
29501;DHT22;16450;50.288;10.966;2023-11-19T03:18:50;4.80;99.90
29501;DHT22;16450;50.288;10.966;2023-11-19T03:21:51;4.90;99.90
29501;DHT22;16450;50.288;10.966;2023-11-19T03:24:53;4.80;99.90
29501;DHT22;16450;50.288;10.966;2023-11-19T03:27:55;4.90;99.90
29501;DHT22;16450;50.288;10.966;2023-11-19T03:30:57;4.90;99.90
29501;DHT22;16450;50.288;10.966;2023-11-19T03:33:59;4.90;99.90
29501;DHT22;16450;50.288;10.966;2023-11-19T03:37:01;4.90;99.90
29501;DHT22;16450;50.288;10.966;2023-11-19T03:40:03;4.90;99.90
29501;DHT22;16450;50.288;10.966;2023-11-19T03:43:06;4.90;99.90
29501;DHT22;16450;50.288;10.966;2023-11-19T03:46:21;4.90;99.90
29501;DHT22;16450;50.288;10.966;2023-11-19T03:49:23;5.00;99.90
29501;DHT22;16450;50.288;10.966;2023-11-19T03:52:25;5.00;99.90
29501;DHT22;16450;50.288;10.966;2023-11-19T03:55:28;5.00;99.90
29501;DHT22;16450;50.288;10.966;2023-11-19T03:58:31;5.00;99.90
29501;DHT22;16450;50.288;10.966;2023-11-19T04:01:33;5.00;99.90
29501;DHT22;16450;50.288;10.966;2023-11-19T04:04:35;5.00;99.90
29501;DHT22;16450;50.288;10.966;2023-11-19T04:07:37;5.00;99.90
29501;DHT22;16450;50.288;10.966;2023-11-19T04:10:39;5.10;99.90
29501;DHT22;16450;50.288;10.966;2023-11-19T04:13:40;5.10;99.90
29501;DHT22;16450;50.288;10.966;2023-11-19T04:16:44;5.10;99.90
29501;DHT22;16450;50.288;10.966;2023-11-19T04:19:46;5.10;99.90
29501;DHT22;16450;50.288;10.966;2023-11-19T04:22:50;5.10;99.90
29501;DHT22;16450;50.288;10.966;2023-11-19T04:25:52;5.10;99.90
29501;DHT22;16450;50.288;10.966;2023-11-19T04:28:54;5.10;99.90
29501;DHT22;16450;50.288;10.966;2023-11-19T04:31:56;5.10;99.90
29501;DHT22;16450;50.288;10.966;2023-11-19T04:34:58;5.10;99.90
29501;DHT22;16450;50.288;10.966;2023-11-19T04:38:00;5.20;99.90
29501;DHT22;16450;50.288;10.966;2023-11-19T04:41:02;5.20;99.90
29501;DHT22;16450;50.288;10.966;2023-11-19T04:44:04;5.20;99.90
29501;DHT22;16450;50.288;10.966;2023-11-19T04:47:06;5.20;99.90
29501;DHT22;16450;50.288;10.966;2023-11-19T04:50:08;5.20;99.90
29501;DHT22;16450;50.288;10.966;2023-11-19T04:53:12;5.20;99.90
29501;DHT22;16450;50.288;10.966;2023-11-19T04:56:14;5.20;99.90
29501;DHT22;16450;50.288;10.966;2023-11-19T04:59:18;5.20;99.90
29501;DHT22;16450;50.288;10.966;2023-11-19T05:02:20;5.30;99.90
29501;DHT22;16450;50.288;10.966;2023-11-19T05:05:21;5.30;99.90
29501;DHT22;16450;50.288;10.966;2023-11-19T05:08:23;5.20;99.90
29501;DHT22;16450;50.288;10.966;2023-11-19T05:11:25;5.30;99.90
29501;DHT22;16450;50.288;10.966;2023-11-19T05:14:27;5.30;99.90
29501;DHT22;16450;50.288;10.966;2023-11-19T05:17:29;5.30;99.90
29501;DHT22;16450;50.288;10.966;2023-11-19T05:20:31;5.30;99.90
29501;DHT22;16450;50.288;10.966;2023-11-19T05:23:34;5.30;99.90
29501;DHT22;16450;50.288;10.966;2023-11-19T05:26:36;5.30;99.90
29501;DHT22;16450;50.288;10.966;2023-11-19T05:29:37;5.40;99.90
29501;DHT22;16450;50.288;10.966;2023-11-19T05:32:40;5.40;99.90
29501;DHT22;16450;50.288;10.966;2023-11-19T05:35:43;5.40;99.90
29501;DHT22;16450;50.288;10.966;2023-11-19T05:38:44;5.40;99.90
29501;DHT22;16450;50.288;10.966;2023-11-19T05:41:46;5.40;99.90
29501;DHT22;16450;50.288;10.966;2023-11-19T05:44:48;5.40;99.90
29501;DHT22;16450;50.288;10.966;2023-11-19T05:47:50;5.40;99.90
29501;DHT22;16450;50.288;10.966;2023-11-19T05:50:53;5.40;99.90
29501;DHT22;16450;50.288;10.966;2023-11-19T05:53:56;5.40;99.90
29501;DHT22;16450;50.288;10.966;2023-11-19T05:56:59;5.50;99.90
29501;DHT22;16450;50.288;10.966;2023-11-19T06:00:00;5.50;99.90
29501;DHT22;16450;50.288;10.966;2023-11-19T06:03:02;5.50;99.90
29501;DHT22;16450;50.288;10.966;2023-11-19T06:06:06;5.50;99.90
29501;DHT22;16450;50.288;10.966;2023-11-19T06:09:08;5.50;99.90
29501;DHT22;16450;50.288;10.966;2023-11-19T06:12:15;5.60;99.90
29501;DHT22;16450;50.288;10.966;2023-11-19T06:15:16;5.60;99.90
29501;DHT22;16450;50.288;10.966;2023-11-19T06:18:18;5.60;99.90
29501;DHT22;16450;50.288;10.966;2023-11-19T06:21:22;5.60;99.90
29501;DHT22;16450;50.288;10.966;2023-11-19T06:24:24;5.60;99.90
29501;DHT22;16450;50.288;10.966;2023-11-19T06:27:25;5.60;99.90
29501;DHT22;16450;50.288;10.966;2023-11-19T06:30:28;5.70;99.90
29501;DHT22;16450;50.288;10.966;2023-11-19T06:33:31;5.70;99.90
29501;DHT22;16450;50.288;10.966;2023-11-19T06:36:33;5.70;99.90
29501;DHT22;16450;50.288;10.966;2023-11-19T06:39:35;5.70;99.90
29501;DHT22;16450;50.288;10.966;2023-11-19T06:42:37;5.70;99.90
29501;DHT22;16450;50.288;10.966;2023-11-19T06:45:40;5.70;99.90
29501;DHT22;16450;50.288;10.966;2023-11-19T06:48:42;5.70;99.90
29501;DHT22;16450;50.288;10.966;2023-11-19T06:51:45;5.70;99.90
29501;DHT22;16450;50.288;10.966;2023-11-19T06:54:48;5.70;99.90
29501;DHT22;16450;50.288;10.966;2023-11-19T06:57:49;5.70;99.90
29501;DHT22;16450;50.288;10.966;2023-11-19T07:00:51;5.70;99.90
29501;DHT22;16450;50.288;10.966;2023-11-19T07:03:53;5.70;99.90
29501;DHT22;16450;50.288;10.966;2023-11-19T07:06:55;5.80;99.90
29501;DHT22;16450;50.288;10.966;2023-11-19T07:09:57;5.80;99.90
29501;DHT22;16450;50.288;10.966;2023-11-19T07:12:59;5.80;99.90
29501;DHT22;16450;50.288;10.966;2023-11-19T07:16:01;5.80;99.90
29501;DHT22;16450;50.288;10.966;2023-11-19T07:19:03;5.80;99.90
29501;DHT22;16450;50.288;10.966;2023-11-19T07:22:06;5.80;99.90
29501;DHT22;16450;50.288;10.966;2023-11-19T07:25:08;5.90;99.90
29501;DHT22;16450;50.288;10.966;2023-11-19T07:28:10;5.80;99.90
29501;DHT22;16450;50.288;10.966;2023-11-19T07:31:13;5.80;99.90
29501;DHT22;16450;50.288;10.966;2023-11-19T07:34:15;5.90;99.90
29501;DHT22;16450;50.288;10.966;2023-11-19T07:37:17;5.90;99.90
29501;DHT22;16450;50.288;10.966;2023-11-19T07:40:18;5.90;99.90
29501;DHT22;16450;50.288;10.966;2023-11-19T07:43:21;5.90;99.90
29501;DHT22;16450;50.288;10.966;2023-11-19T07:46:23;5.90;99.90
29501;DHT22;16450;50.288;10.966;2023-11-19T07:49:25;5.90;99.90
29501;DHT22;16450;50.288;10.966;2023-11-19T07:52:26;5.90;99.90
29501;DHT22;16450;50.288;10.966;2023-11-19T07:55:28;5.90;99.90
29501;DHT22;16450;50.288;10.966;2023-11-19T07:58:34;5.90;99.90
29501;DHT22;16450;50.288;10.966;2023-11-19T08:01:35;6.00;99.90
29501;DHT22;16450;50.288;10.966;2023-11-19T08:04:37;6.00;99.90
29501;DHT22;16450;50.288;10.966;2023-11-19T08:07:41;6.00;99.90
29501;DHT22;16450;50.288;10.966;2023-11-19T08:10:43;6.10;99.90
29501;DHT22;16450;50.288;10.966;2023-11-19T08:13:46;6.20;99.90
29501;DHT22;16450;50.288;10.966;2023-11-19T08:16:48;6.20;99.90
29501;DHT22;16450;50.288;10.966;2023-11-19T08:19:51;6.30;99.90
29501;DHT22;16450;50.288;10.966;2023-11-19T08:22:53;6.40;99.90
29501;DHT22;16450;50.288;10.966;2023-11-19T08:25:54;6.50;99.90
29501;DHT22;16450;50.288;10.966;2023-11-19T08:28:57;6.60;99.90
29501;DHT22;16450;50.288;10.966;2023-11-19T08:32:00;6.70;99.90
29501;DHT22;16450;50.288;10.966;2023-11-19T08:35:04;6.80;99.90
29501;DHT22;16450;50.288;10.966;2023-11-19T08:38:07;6.80;99.90
29501;DHT22;16450;50.288;10.966;2023-11-19T08:41:09;6.90;99.90
29501;DHT22;16450;50.288;10.966;2023-11-19T08:44:12;7.00;99.90
29501;DHT22;16450;50.288;10.966;2023-11-19T08:47:14;7.10;99.90
29501;DHT22;16450;50.288;10.966;2023-11-19T08:50:18;7.20;99.90
29501;DHT22;16450;50.288;10.966;2023-11-19T08:53:20;7.30;99.90
29501;DHT22;16450;50.288;10.966;2023-11-19T08:56:22;7.40;99.90
29501;DHT22;16450;50.288;10.966;2023-11-19T08:59:24;7.50;99.90
29501;DHT22;16450;50.288;10.966;2023-11-19T09:02:26;7.60;99.90
29501;DHT22;16450;50.288;10.966;2023-11-19T09:05:28;7.80;99.90
29501;DHT22;16450;50.288;10.966;2023-11-19T09:08:30;7.90;99.90
29501;DHT22;16450;50.288;10.966;2023-11-19T09:11:32;8.00;99.90
29501;DHT22;16450;50.288;10.966;2023-11-19T09:14:33;8.20;99.90
29501;DHT22;16450;50.288;10.966;2023-11-19T09:17:35;8.30;99.90
29501;DHT22;16450;50.288;10.966;2023-11-19T09:20:37;8.50;99.90
29501;DHT22;16450;50.288;10.966;2023-11-19T09:23:41;8.60;99.90
29501;DHT22;16450;50.288;10.966;2023-11-19T09:26:43;8.70;99.90
29501;DHT22;16450;50.288;10.966;2023-11-19T09:29:45;8.80;99.90
29501;DHT22;16450;50.288;10.966;2023-11-19T09:32:48;8.90;99.90
29501;DHT22;16450;50.288;10.966;2023-11-19T09:35:50;8.90;99.90
29501;DHT22;16450;50.288;10.966;2023-11-19T09:38:52;9.00;99.90
29501;DHT22;16450;50.288;10.966;2023-11-19T09:41:54;9.10;99.90
29501;DHT22;16450;50.288;10.966;2023-11-19T09:44:56;9.20;99.90
29501;DHT22;16450;50.288;10.966;2023-11-19T09:48:00;9.20;99.90
29501;DHT22;16450;50.288;10.966;2023-11-19T09:51:04;9.30;99.90
29501;DHT22;16450;50.288;10.966;2023-11-19T09:54:07;9.40;99.90
29501;DHT22;16450;50.288;10.966;2023-11-19T09:57:10;9.40;99.90
29501;DHT22;16450;50.288;10.966;2023-11-19T10:00:14;9.60;99.90
29501;DHT22;16450;50.288;10.966;2023-11-19T10:03:17;9.70;99.90
29501;DHT22;16450;50.288;10.966;2023-11-19T10:06:20;9.80;99.90
29501;DHT22;16450;50.288;10.966;2023-11-19T10:09:22;9.90;99.90
29501;DHT22;16450;50.288;10.966;2023-11-19T10:12:24;10.00;99.90
29501;DHT22;16450;50.288;10.966;2023-11-19T10:15:26;10.10;99.90
29501;DHT22;16450;50.288;10.966;2023-11-19T10:18:31;10.20;99.90
29501;DHT22;16450;50.288;10.966;2023-11-19T10:21:33;10.30;99.90
29501;DHT22;16450;50.288;10.966;2023-11-19T10:24:35;10.30;99.90
29501;DHT22;16450;50.288;10.966;2023-11-19T10:27:44;10.40;99.90
29501;DHT22;16450;50.288;10.966;2023-11-19T10:30:48;10.50;99.90
29501;DHT22;16450;50.288;10.966;2023-11-19T10:33:51;10.50;99.90
29501;DHT22;16450;50.288;10.966;2023-11-19T10:36:53;10.60;99.90
29501;DHT22;16450;50.288;10.966;2023-11-19T10:39:55;10.60;99.90
29501;DHT22;16450;50.288;10.966;2023-11-19T10:43:03;10.60;99.90
29501;DHT22;16450;50.288;10.966;2023-11-19T10:46:10;10.60;99.90
29501;DHT22;16450;50.288;10.966;2023-11-19T10:49:12;10.60;99.90
29501;DHT22;16450;50.288;10.966;2023-11-19T10:52:18;10.60;99.90
29501;DHT22;16450;50.288;10.966;2023-11-19T10:55:27;10.60;99.90
29501;DHT22;16450;50.288;10.966;2023-11-19T10:58:32;10.50;99.90
29501;DHT22;16450;50.288;10.966;2023-11-19T11:01:45;10.60;99.90
29501;DHT22;16450;50.288;10.966;2023-11-19T11:04:50;10.70;99.90
29501;DHT22;16450;50.288;10.966;2023-11-19T11:07:55;10.80;99.90
29501;DHT22;16450;50.288;10.966;2023-11-19T11:10:57;10.90;99.90
29501;DHT22;16450;50.288;10.966;2023-11-19T11:14:02;10.90;99.90
29501;DHT22;16450;50.288;10.966;2023-11-19T11:17:04;11.00;99.90
29501;DHT22;16450;50.288;10.966;2023-11-19T11:20:10;11.00;99.90
29501;DHT22;16450;50.288;10.966;2023-11-19T11:23:52;11.10;99.90
29501;DHT22;16450;50.288;10.966;2023-11-19T11:40:15;11.00;99.90
29501;DHT22;16450;50.288;10.966;2023-11-19T11:46:58;11.10;99.90
29501;DHT22;16450;50.288;10.966;2023-11-19T11:50:16;11.10;99.90
29501;DHT22;16450;50.288;10.966;2023-11-19T11:53:21;11.10;99.90
29501;DHT22;16450;50.288;10.966;2023-11-19T11:56:33;11.20;99.90
29501;DHT22;16450;50.288;10.966;2023-11-19T12:02:46;11.30;99.90
29501;DHT22;16450;50.288;10.966;2023-11-19T12:05:48;11.30;99.90
29501;DHT22;16450;50.288;10.966;2023-11-19T12:08:50;11.30;99.90
29501;DHT22;16450;50.288;10.966;2023-11-19T12:12:11;11.30;99.90
29501;DHT22;16450;50.288;10.966;2023-11-19T12:15:13;11.40;99.90
29501;DHT22;16450;50.288;10.966;2023-11-19T12:18:29;11.40;99.90
29501;DHT22;16450;50.288;10.966;2023-11-19T12:21:31;11.50;99.90
29501;DHT22;16450;50.288;10.966;2023-11-19T12:24:34;11.50;99.90
29501;DHT22;16450;50.288;10.966;2023-11-19T12:27:39;11.50;99.90
29501;DHT22;16450;50.288;10.966;2023-11-19T12:30:41;11.50;99.90
29501;DHT22;16450;50.288;10.966;2023-11-19T12:33:43;11.50;99.90
29501;DHT22;16450;50.288;10.966;2023-11-19T12:36:44;11.60;99.90
29501;DHT22;16450;50.288;10.966;2023-11-19T12:39:46;11.50;99.90
29501;DHT22;16450;50.288;10.966;2023-11-19T12:42:49;11.60;99.90
29501;DHT22;16450;50.288;10.966;2023-11-19T12:45:51;11.60;99.90
29501;DHT22;16450;50.288;10.966;2023-11-19T12:48:53;11.60;99.90
29501;DHT22;16450;50.288;10.966;2023-11-19T12:51:55;11.50;99.90
29501;DHT22;16450;50.288;10.966;2023-11-19T12:54:57;11.70;99.90
29501;DHT22;16450;50.288;10.966;2023-11-19T12:57:59;11.60;99.90
29501;DHT22;16450;50.288;10.966;2023-11-19T13:01:02;11.70;99.90
29501;DHT22;16450;50.288;10.966;2023-11-19T13:04:18;11.70;99.90
29501;DHT22;16450;50.288;10.966;2023-11-19T13:07:21;11.70;99.90
29501;DHT22;16450;50.288;10.966;2023-11-19T13:10:23;11.70;99.90
29501;DHT22;16450;50.288;10.966;2023-11-19T13:13:25;11.80;99.90
29501;DHT22;16450;50.288;10.966;2023-11-19T13:16:27;11.80;99.90
29501;DHT22;16450;50.288;10.966;2023-11-19T13:19:30;11.80;99.90
29501;DHT22;16450;50.288;10.966;2023-11-19T13:22:32;11.80;99.90
29501;DHT22;16450;50.288;10.966;2023-11-19T13:25:34;11.80;99.90
29501;DHT22;16450;50.288;10.966;2023-11-19T13:28:35;11.90;99.90
29501;DHT22;16450;50.288;10.966;2023-11-19T13:31:38;11.80;99.90
29501;DHT22;16450;50.288;10.966;2023-11-19T13:34:40;11.90;99.90
29501;DHT22;16450;50.288;10.966;2023-11-19T13:37:42;11.80;99.90
29501;DHT22;16450;50.288;10.966;2023-11-19T13:40:43;11.80;99.90
29501;DHT22;16450;50.288;10.966;2023-11-19T13:43:45;11.70;99.90
29501;DHT22;16450;50.288;10.966;2023-11-19T13:46:47;11.70;99.90
29501;DHT22;16450;50.288;10.966;2023-11-19T13:49:49;11.60;99.90
29501;DHT22;16450;50.288;10.966;2023-11-19T13:52:51;11.50;99.90
29501;DHT22;16450;50.288;10.966;2023-11-19T13:55:53;11.50;99.90
29501;DHT22;16450;50.288;10.966;2023-11-19T13:58:55;11.40;99.90
29501;DHT22;16450;50.288;10.966;2023-11-19T14:01:57;11.30;99.90
29501;DHT22;16450;50.288;10.966;2023-11-19T14:05:01;11.20;99.90
29501;DHT22;16450;50.288;10.966;2023-11-19T14:08:04;11.20;99.90
29501;DHT22;16450;50.288;10.966;2023-11-19T14:11:24;11.10;99.90
29501;DHT22;16450;50.288;10.966;2023-11-19T14:14:26;11.10;99.90
29501;DHT22;16450;50.288;10.966;2023-11-19T14:17:28;11.10;99.90
29501;DHT22;16450;50.288;10.966;2023-11-19T14:20:30;11.00;99.90
29501;DHT22;16450;50.288;10.966;2023-11-19T14:23:32;11.00;99.90
29501;DHT22;16450;50.288;10.966;2023-11-19T14:26:34;10.90;99.90
29501;DHT22;16450;50.288;10.966;2023-11-19T14:29:36;10.90;99.90
29501;DHT22;16450;50.288;10.966;2023-11-19T14:32:39;10.90;99.90
29501;DHT22;16450;50.288;10.966;2023-11-19T14:35:41;10.90;99.90
29501;DHT22;16450;50.288;10.966;2023-11-19T14:38:43;10.80;99.90
29501;DHT22;16450;50.288;10.966;2023-11-19T14:41:45;10.80;99.90
29501;DHT22;16450;50.288;10.966;2023-11-19T14:44:46;10.80;99.90
29501;DHT22;16450;50.288;10.966;2023-11-19T14:47:48;10.70;99.90
29501;DHT22;16450;50.288;10.966;2023-11-19T14:50:50;10.70;99.90
29501;DHT22;16450;50.288;10.966;2023-11-19T14:53:53;10.70;99.90
29501;DHT22;16450;50.288;10.966;2023-11-19T14:56:55;10.60;99.90
29501;DHT22;16450;50.288;10.966;2023-11-19T14:59:56;10.60;99.90
29501;DHT22;16450;50.288;10.966;2023-11-19T15:02:58;10.60;99.90
29501;DHT22;16450;50.288;10.966;2023-11-19T15:06:00;10.60;99.90
29501;DHT22;16450;50.288;10.966;2023-11-19T15:09:02;10.60;99.90
29501;DHT22;16450;50.288;10.966;2023-11-19T15:12:05;10.60;99.90
29501;DHT22;16450;50.288;10.966;2023-11-19T15:15:10;10.60;99.90
29501;DHT22;16450;50.288;10.966;2023-11-19T15:18:15;10.50;99.90
29501;DHT22;16450;50.288;10.966;2023-11-19T15:21:18;10.50;99.90
29501;DHT22;16450;50.288;10.966;2023-11-19T15:24:20;10.50;99.90
29501;DHT22;16450;50.288;10.966;2023-11-19T15:27:22;10.50;99.90
29501;DHT22;16450;50.288;10.966;2023-11-19T15:30:24;10.50;99.90
29501;DHT22;16450;50.288;10.966;2023-11-19T15:33:27;10.40;99.90
29501;DHT22;16450;50.288;10.966;2023-11-19T15:36:30;10.40;99.90
29501;DHT22;16450;50.288;10.966;2023-11-19T15:39:33;10.40;99.90
29501;DHT22;16450;50.288;10.966;2023-11-19T15:42:37;10.40;99.90
29501;DHT22;16450;50.288;10.966;2023-11-19T15:45:39;10.40;99.90
29501;DHT22;16450;50.288;10.966;2023-11-19T15:48:41;10.40;99.90
29501;DHT22;16450;50.288;10.966;2023-11-19T15:51:43;10.40;99.90
29501;DHT22;16450;50.288;10.966;2023-11-19T15:54:45;10.40;99.90
29501;DHT22;16450;50.288;10.966;2023-11-19T15:57:49;10.40;99.90
29501;DHT22;16450;50.288;10.966;2023-11-19T16:00:51;10.40;99.90
29501;DHT22;16450;50.288;10.966;2023-11-19T16:03:53;10.40;99.90
29501;DHT22;16450;50.288;10.966;2023-11-19T16:06:55;10.40;99.90
29501;DHT22;16450;50.288;10.966;2023-11-19T16:09:57;10.40;99.90
29501;DHT22;16450;50.288;10.966;2023-11-19T16:12:59;10.30;99.90
29501;DHT22;16450;50.288;10.966;2023-11-19T16:16:01;10.30;99.90
29501;DHT22;16450;50.288;10.966;2023-11-19T16:19:03;10.40;99.90
29501;DHT22;16450;50.288;10.966;2023-11-19T16:22:08;10.40;99.90
29501;DHT22;16450;50.288;10.966;2023-11-19T16:25:13;10.40;99.90
29501;DHT22;16450;50.288;10.966;2023-11-19T16:28:16;10.40;99.90
29501;DHT22;16450;50.288;10.966;2023-11-19T16:31:19;10.40;99.90
29501;DHT22;16450;50.288;10.966;2023-11-19T16:34:20;10.40;99.90
29501;DHT22;16450;50.288;10.966;2023-11-19T16:37:25;10.40;99.90
29501;DHT22;16450;50.288;10.966;2023-11-19T16:40:27;10.40;99.90
29501;DHT22;16450;50.288;10.966;2023-11-19T16:43:29;10.40;99.90
29501;DHT22;16450;50.288;10.966;2023-11-19T16:46:31;10.40;99.90
29501;DHT22;16450;50.288;10.966;2023-11-19T16:49:34;10.40;99.90
29501;DHT22;16450;50.288;10.966;2023-11-19T16:52:36;10.50;99.90
29501;DHT22;16450;50.288;10.966;2023-11-19T16:55:37;10.50;99.90
29501;DHT22;16450;50.288;10.966;2023-11-19T16:58:39;10.50;99.90
29501;DHT22;16450;50.288;10.966;2023-11-19T17:01:43;10.50;99.90
29501;DHT22;16450;50.288;10.966;2023-11-19T17:04:46;10.50;99.90
29501;DHT22;16450;50.288;10.966;2023-11-19T17:07:48;10.50;99.90
29501;DHT22;16450;50.288;10.966;2023-11-19T17:10:51;10.50;99.90
29501;DHT22;16450;50.288;10.966;2023-11-19T17:13:54;10.50;99.90
29501;DHT22;16450;50.288;10.966;2023-11-19T17:16:55;10.50;99.90
29501;DHT22;16450;50.288;10.966;2023-11-19T17:19:57;10.50;99.90
29501;DHT22;16450;50.288;10.966;2023-11-19T17:22:59;10.50;99.90
29501;DHT22;16450;50.288;10.966;2023-11-19T17:26:02;10.50;99.90
29501;DHT22;16450;50.288;10.966;2023-11-19T17:29:07;10.50;99.90
29501;DHT22;16450;50.288;10.966;2023-11-19T17:32:09;10.50;99.90
29501;DHT22;16450;50.288;10.966;2023-11-19T17:35:11;10.50;99.90
29501;DHT22;16450;50.288;10.966;2023-11-19T17:38:13;10.50;99.90
29501;DHT22;16450;50.288;10.966;2023-11-19T17:41:18;10.50;99.90
29501;DHT22;16450;50.288;10.966;2023-11-19T17:44:19;10.50;99.90
29501;DHT22;16450;50.288;10.966;2023-11-19T17:47:23;10.50;99.90
29501;DHT22;16450;50.288;10.966;2023-11-19T17:50:24;10.50;99.90
29501;DHT22;16450;50.288;10.966;2023-11-19T17:53:27;10.40;99.90
29501;DHT22;16450;50.288;10.966;2023-11-19T17:56:30;10.40;99.90
29501;DHT22;16450;50.288;10.966;2023-11-19T17:59:32;10.40;99.90
29501;DHT22;16450;50.288;10.966;2023-11-19T18:02:34;10.30;99.90
29501;DHT22;16450;50.288;10.966;2023-11-19T18:05:39;10.20;99.90
29501;DHT22;16450;50.288;10.966;2023-11-19T18:08:44;10.20;99.90
29501;DHT22;16450;50.288;10.966;2023-11-19T18:11:46;10.10;99.90
29501;DHT22;16450;50.288;10.966;2023-11-19T18:14:49;10.10;99.90
29501;DHT22;16450;50.288;10.966;2023-11-19T18:17:53;10.00;99.90
29501;DHT22;16450;50.288;10.966;2023-11-19T18:20:55;10.00;99.90
29501;DHT22;16450;50.288;10.966;2023-11-19T18:24:00;9.90;99.90
29501;DHT22;16450;50.288;10.966;2023-11-19T18:27:02;9.90;99.90
29501;DHT22;16450;50.288;10.966;2023-11-19T18:30:08;9.80;99.90
29501;DHT22;16450;50.288;10.966;2023-11-19T18:33:11;9.80;99.90
29501;DHT22;16450;50.288;10.966;2023-11-19T18:36:13;9.80;99.90
29501;DHT22;16450;50.288;10.966;2023-11-19T18:39:16;9.70;99.90
29501;DHT22;16450;50.288;10.966;2023-11-19T18:42:18;9.70;99.90
29501;DHT22;16450;50.288;10.966;2023-11-19T18:45:20;9.70;99.90
29501;DHT22;16450;50.288;10.966;2023-11-19T18:48:24;9.70;99.90
29501;DHT22;16450;50.288;10.966;2023-11-19T18:51:26;9.70;99.90
29501;DHT22;16450;50.288;10.966;2023-11-19T18:54:29;9.70;99.90
29501;DHT22;16450;50.288;10.966;2023-11-19T18:57:31;9.80;99.90
29501;DHT22;16450;50.288;10.966;2023-11-19T19:00:33;9.70;99.90
29501;DHT22;16450;50.288;10.966;2023-11-19T19:03:35;9.60;99.90
29501;DHT22;16450;50.288;10.966;2023-11-19T19:06:38;9.70;99.90
29501;DHT22;16450;50.288;10.966;2023-11-19T19:09:40;9.70;99.90
29501;DHT22;16450;50.288;10.966;2023-11-19T19:12:42;9.70;99.90
29501;DHT22;16450;50.288;10.966;2023-11-19T19:15:44;9.70;99.90
29501;DHT22;16450;50.288;10.966;2023-11-19T19:18:46;9.70;99.90
29501;DHT22;16450;50.288;10.966;2023-11-19T19:21:48;9.70;99.90
29501;DHT22;16450;50.288;10.966;2023-11-19T19:24:49;9.60;99.90
29501;DHT22;16450;50.288;10.966;2023-11-19T19:27:56;9.60;99.90
29501;DHT22;16450;50.288;10.966;2023-11-19T19:31:18;9.60;99.90